sensor_id;sensor_type;location;lat;lon;timestamp;P1;durP1;ratioP1;P2;durP2;ratioP2
75167;SDS011;73507;52.510;13.420;2024-03-08T00:00:10;27.90;;;9.98;;
75167;SDS011;73507;52.510;13.420;2024-03-08T00:02:40;20.65;;;10.45;;
75167;SDS011;73507;52.510;13.420;2024-03-08T00:05:06;23.02;;;10.18;;
75167;SDS011;73507;52.510;13.420;2024-03-08T00:07:34;21.63;;;10.85;;
75167;SDS011;73507;52.510;13.420;2024-03-08T00:10:01;58.47;;;25.90;;
75167;SDS011;73507;52.510;13.420;2024-03-08T00:12:27;127.95;;;48.67;;
75167;SDS011;73507;52.510;13.420;2024-03-08T00:14:53;151.30;;;64.28;;
75167;SDS011;73507;52.510;13.420;2024-03-08T00:17:22;82.25;;;31.42;;
75167;SDS011;73507;52.510;13.420;2024-03-08T00:19:49;54.05;;;23.90;;
75167;SDS011;73507;52.510;13.420;2024-03-08T00:22:15;131.65;;;50.05;;
75167;SDS011;73507;52.510;13.420;2024-03-08T00:24:42;93.72;;;37.47;;
75167;SDS011;73507;52.510;13.420;2024-03-08T00:27:08;36.42;;;16.27;;
75167;SDS011;73507;52.510;13.420;2024-03-08T00:29:35;62.67;;;26.15;;
75167;SDS011;73507;52.510;13.420;2024-03-08T00:32:03;71.60;;;27.38;;
75167;SDS011;73507;52.510;13.420;2024-03-08T00:34:30;66.18;;;24.13;;
75167;SDS011;73507;52.510;13.420;2024-03-08T00:36:57;60.45;;;24.70;;
75167;SDS011;73507;52.510;13.420;2024-03-08T00:39:23;34.58;;;16.05;;
75167;SDS011;73507;52.510;13.420;2024-03-08T00:41:51;35.42;;;13.00;;
75167;SDS011;73507;52.510;13.420;2024-03-08T00:44:17;33.63;;;14.57;;
75167;SDS011;73507;52.510;13.420;2024-03-08T00:46:44;28.95;;;11.35;;
75167;SDS011;73507;52.510;13.420;2024-03-08T00:49:10;28.77;;;11.98;;
75167;SDS011;73507;52.510;13.420;2024-03-08T00:51:37;27.08;;;11.20;;
75167;SDS011;73507;52.510;13.420;2024-03-08T00:54:03;26.98;;;10.82;;
75167;SDS011;73507;52.510;13.420;2024-03-08T00:56:29;17.40;;;7.32;;
75167;SDS011;73507;52.510;13.420;2024-03-08T00:58:55;23.77;;;10.77;;
75167;SDS011;73507;52.510;13.420;2024-03-08T01:01:22;34.45;;;14.13;;
75167;SDS011;73507;52.510;13.420;2024-03-08T01:03:49;22.63;;;11.27;;
75167;SDS011;73507;52.510;13.420;2024-03-08T01:06:15;27.38;;;13.30;;
75167;SDS011;73507;52.510;13.420;2024-03-08T01:08:42;32.00;;;13.65;;
75167;SDS011;73507;52.510;13.420;2024-03-08T01:11:08;30.10;;;11.73;;
75167;SDS011;73507;52.510;13.420;2024-03-08T01:13:34;35.97;;;15.13;;
75167;SDS011;73507;52.510;13.420;2024-03-08T01:16:01;27.60;;;11.38;;
75167;SDS011;73507;52.510;13.420;2024-03-08T01:18:28;38.22;;;14.27;;
75167;SDS011;73507;52.510;13.420;2024-03-08T01:20:55;22.42;;;10.05;;
75167;SDS011;73507;52.510;13.420;2024-03-08T01:23:22;21.42;;;10.80;;
75167;SDS011;73507;52.510;13.420;2024-03-08T01:25:51;22.85;;;10.48;;
75167;SDS011;73507;52.510;13.420;2024-03-08T01:28:25;24.63;;;11.35;;
75167;SDS011;73507;52.510;13.420;2024-03-08T01:30:52;23.45;;;10.27;;
75167;SDS011;73507;52.510;13.420;2024-03-08T01:33:26;22.92;;;11.02;;
75167;SDS011;73507;52.510;13.420;2024-03-08T01:35:56;23.63;;;10.68;;
75167;SDS011;73507;52.510;13.420;2024-03-08T01:38:23;18.38;;;8.00;;
75167;SDS011;73507;52.510;13.420;2024-03-08T01:40:55;27.10;;;12.15;;
75167;SDS011;73507;52.510;13.420;2024-03-08T01:43:22;18.67;;;8.90;;
75167;SDS011;73507;52.510;13.420;2024-03-08T01:45:52;17.10;;;8.75;;
75167;SDS011;73507;52.510;13.420;2024-03-08T01:48:18;25.45;;;9.77;;
75167;SDS011;73507;52.510;13.420;2024-03-08T01:50:47;22.65;;;11.38;;
75167;SDS011;73507;52.510;13.420;2024-03-08T01:53:14;26.58;;;10.40;;
75167;SDS011;73507;52.510;13.420;2024-03-08T01:55:40;28.00;;;11.23;;
75167;SDS011;73507;52.510;13.420;2024-03-08T01:58:08;25.10;;;12.00;;
75167;SDS011;73507;52.510;13.420;2024-03-08T02:00:36;20.48;;;9.68;;
75167;SDS011;73507;52.510;13.420;2024-03-08T02:05:31;18.50;;;7.97;;
75167;SDS011;73507;52.510;13.420;2024-03-08T02:07:58;22.55;;;10.18;;
75167;SDS011;73507;52.510;13.420;2024-03-08T02:10:24;17.30;;;8.18;;
75167;SDS011;73507;52.510;13.420;2024-03-08T02:12:50;25.85;;;11.07;;
75167;SDS011;73507;52.510;13.420;2024-03-08T02:15:16;55.78;;;21.05;;
75167;SDS011;73507;52.510;13.420;2024-03-08T02:17:43;60.75;;;25.77;;
75167;SDS011;73507;52.510;13.420;2024-03-08T02:20:09;30.60;;;12.43;;
75167;SDS011;73507;52.510;13.420;2024-03-08T02:22:38;34.25;;;13.82;;
75167;SDS011;73507;52.510;13.420;2024-03-08T02:25:04;64.10;;;24.70;;
75167;SDS011;73507;52.510;13.420;2024-03-08T02:27:30;39.30;;;17.88;;
75167;SDS011;73507;52.510;13.420;2024-03-08T02:29:58;36.85;;;14.60;;
75167;SDS011;73507;52.510;13.420;2024-03-08T02:32:24;39.80;;;16.33;;
75167;SDS011;73507;52.510;13.420;2024-03-08T02:34:51;47.95;;;18.52;;
75167;SDS011;73507;52.510;13.420;2024-03-08T02:37:17;34.00;;;13.38;;
75167;SDS011;73507;52.510;13.420;2024-03-08T02:39:43;22.85;;;11.88;;
75167;SDS011;73507;52.510;13.420;2024-03-08T02:42:10;21.20;;;8.38;;
75167;SDS011;73507;52.510;13.420;2024-03-08T02:44:36;38.13;;;17.70;;
75167;SDS011;73507;52.510;13.420;2024-03-08T02:47:02;32.30;;;12.57;;
75167;SDS011;73507;52.510;13.420;2024-03-08T02:49:29;24.30;;;11.50;;
75167;SDS011;73507;52.510;13.420;2024-03-08T02:51:56;28.38;;;10.82;;
75167;SDS011;73507;52.510;13.420;2024-03-08T02:54:22;38.00;;;15.52;;
75167;SDS011;73507;52.510;13.420;2024-03-08T02:56:49;20.00;;;9.55;;
75167;SDS011;73507;52.510;13.420;2024-03-08T02:59:18;26.63;;;10.73;;
75167;SDS011;73507;52.510;13.420;2024-03-08T03:01:44;56.58;;;21.92;;
75167;SDS011;73507;52.510;13.420;2024-03-08T03:04:10;28.48;;;12.23;;
75167;SDS011;73507;52.510;13.420;2024-03-08T03:06:37;25.85;;;11.30;;
75167;SDS011;73507;52.510;13.420;2024-03-08T03:09:03;25.63;;;9.88;;
75167;SDS011;73507;52.510;13.420;2024-03-08T03:11:31;24.23;;;10.77;;
75167;SDS011;73507;52.510;13.420;2024-03-08T03:13:57;22.38;;;9.48;;
75167;SDS011;73507;52.510;13.420;2024-03-08T03:16:23;31.58;;;13.60;;
75167;SDS011;73507;52.510;13.420;2024-03-08T03:18:50;12.23;;;5.40;;
75167;SDS011;73507;52.510;13.420;2024-03-08T03:21:16;32.88;;;13.30;;
75167;SDS011;73507;52.510;13.420;2024-03-08T03:23:42;19.55;;;7.07;;
75167;SDS011;73507;52.510;13.420;2024-03-08T03:26:09;32.20;;;13.52;;
75167;SDS011;73507;52.510;13.420;2024-03-08T03:28:39;35.30;;;16.48;;
75167;SDS011;73507;52.510;13.420;2024-03-08T03:31:08;32.63;;;15.25;;
75167;SDS011;73507;52.510;13.420;2024-03-08T03:33:39;33.88;;;14.32;;
75167;SDS011;73507;52.510;13.420;2024-03-08T03:36:05;28.02;;;12.50;;
75167;SDS011;73507;52.510;13.420;2024-03-08T03:38:35;29.05;;;11.40;;
75167;SDS011;73507;52.510;13.420;2024-03-08T03:41:01;26.50;;;13.05;;
75167;SDS011;73507;52.510;13.420;2024-03-08T03:43:32;21.98;;;9.70;;
75167;SDS011;73507;52.510;13.420;2024-03-08T03:45:59;30.88;;;13.15;;
75167;SDS011;73507;52.510;13.420;2024-03-08T03:48:26;29.55;;;14.07;;
75167;SDS011;73507;52.510;13.420;2024-03-08T03:50:52;29.27;;;13.20;;
75167;SDS011;73507;52.510;13.420;2024-03-08T03:53:19;20.10;;;9.50;;
75167;SDS011;73507;52.510;13.420;2024-03-08T03:55:45;20.65;;;10.05;;
75167;SDS011;73507;52.510;13.420;2024-03-08T03:58:13;28.15;;;12.55;;
75167;SDS011;73507;52.510;13.420;2024-03-08T04:00:41;29.42;;;11.52;;
75167;SDS011;73507;52.510;13.420;2024-03-08T04:03:07;27.00;;;13.73;;
75167;SDS011;73507;52.510;13.420;2024-03-08T04:05:33;30.67;;;12.85;;
75167;SDS011;73507;52.510;13.420;2024-03-08T04:07:59;20.10;;;9.98;;
75167;SDS011;73507;52.510;13.420;2024-03-08T04:10:25;21.52;;;9.00;;
75167;SDS011;73507;52.510;13.420;2024-03-08T04:12:52;32.45;;;14.77;;
75167;SDS011;73507;52.510;13.420;2024-03-08T04:15:18;25.23;;;10.10;;
75167;SDS011;73507;52.510;13.420;2024-03-08T04:17:45;28.95;;;13.48;;
75167;SDS011;73507;52.510;13.420;2024-03-08T04:20:11;24.10;;;11.80;;
75167;SDS011;73507;52.510;13.420;2024-03-08T04:22:39;36.20;;;13.55;;
75167;SDS011;73507;52.510;13.420;2024-03-08T04:25:09;32.60;;;14.07;;
75167;SDS011;73507;52.510;13.420;2024-03-08T04:27:36;30.92;;;12.80;;
75167;SDS011;73507;52.510;13.420;2024-03-08T04:30:02;31.30;;;12.57;;
75167;SDS011;73507;52.510;13.420;2024-03-08T04:32:28;28.70;;;12.63;;
75167;SDS011;73507;52.510;13.420;2024-03-08T04:34:57;27.27;;;12.57;;
75167;SDS011;73507;52.510;13.420;2024-03-08T04:37:23;28.85;;;12.52;;
75167;SDS011;73507;52.510;13.420;2024-03-08T04:39:50;27.23;;;12.32;;
75167;SDS011;73507;52.510;13.420;2024-03-08T04:42:16;30.30;;;14.20;;
75167;SDS011;73507;52.510;13.420;2024-03-08T04:44:43;29.90;;;13.52;;
75167;SDS011;73507;52.510;13.420;2024-03-08T04:47:09;27.70;;;11.25;;
75167;SDS011;73507;52.510;13.420;2024-03-08T04:49:36;30.55;;;11.82;;
75167;SDS011;73507;52.510;13.420;2024-03-08T04:52:02;17.65;;;9.35;;
75167;SDS011;73507;52.510;13.420;2024-03-08T04:54:29;28.42;;;12.65;;
75167;SDS011;73507;52.510;13.420;2024-03-08T04:56:55;29.13;;;13.02;;
75167;SDS011;73507;52.510;13.420;2024-03-08T04:59:22;33.53;;;12.80;;
75167;SDS011;73507;52.510;13.420;2024-03-08T05:01:49;25.17;;;10.80;;
75167;SDS011;73507;52.510;13.420;2024-03-08T05:04:16;20.15;;;9.98;;
75167;SDS011;73507;52.510;13.420;2024-03-08T05:06:42;31.55;;;14.05;;
75167;SDS011;73507;52.510;13.420;2024-03-08T05:09:09;17.30;;;8.35;;
75167;SDS011;73507;52.510;13.420;2024-03-08T05:11:44;30.67;;;11.98;;
75167;SDS011;73507;52.510;13.420;2024-03-08T05:14:10;15.45;;;7.82;;
75167;SDS011;73507;52.510;13.420;2024-03-08T05:19:05;31.85;;;13.52;;
75167;SDS011;73507;52.510;13.420;2024-03-08T05:21:31;30.70;;;11.95;;
75167;SDS011;73507;52.510;13.420;2024-03-08T05:23:58;39.95;;;15.63;;
75167;SDS011;73507;52.510;13.420;2024-03-08T05:26:24;25.38;;;11.38;;
75167;SDS011;73507;52.510;13.420;2024-03-08T05:28:50;32.45;;;14.18;;
75167;SDS011;73507;52.510;13.420;2024-03-08T05:31:20;19.83;;;10.88;;
75167;SDS011;73507;52.510;13.420;2024-03-08T05:33:49;18.73;;;7.57;;
75167;SDS011;73507;52.510;13.420;2024-03-08T05:36:16;34.92;;;15.55;;
75167;SDS011;73507;52.510;13.420;2024-03-08T05:38:45;23.25;;;9.00;;
75167;SDS011;73507;52.510;13.420;2024-03-08T05:41:11;29.55;;;12.10;;
75167;SDS011;73507;52.510;13.420;2024-03-08T05:43:37;30.80;;;12.48;;
75167;SDS011;73507;52.510;13.420;2024-03-08T05:46:04;34.80;;;12.48;;
75167;SDS011;73507;52.510;13.420;2024-03-08T05:48:30;34.45;;;15.82;;
75167;SDS011;73507;52.510;13.420;2024-03-08T05:50:57;23.02;;;9.52;;
75167;SDS011;73507;52.510;13.420;2024-03-08T05:53:24;31.85;;;14.35;;
75167;SDS011;73507;52.510;13.420;2024-03-08T05:55:50;28.02;;;12.73;;
75167;SDS011;73507;52.510;13.420;2024-03-08T05:58:16;36.70;;;15.15;;
75167;SDS011;73507;52.510;13.420;2024-03-08T06:00:42;29.65;;;16.50;;
75167;SDS011;73507;52.510;13.420;2024-03-08T06:05:37;31.45;;;15.02;;
75167;SDS011;73507;52.510;13.420;2024-03-08T06:08:07;34.67;;;13.32;;
75167;SDS011;73507;52.510;13.420;2024-03-08T06:10:33;32.47;;;12.55;;
75167;SDS011;73507;52.510;13.420;2024-03-08T06:12:59;30.00;;;12.75;;
75167;SDS011;73507;52.510;13.420;2024-03-08T06:15:26;32.70;;;14.90;;
75167;SDS011;73507;52.510;13.420;2024-03-08T06:17:53;27.40;;;15.02;;
75167;SDS011;73507;52.510;13.420;2024-03-08T06:20:19;34.60;;;14.20;;
75167;SDS011;73507;52.510;13.420;2024-03-08T06:22:45;42.00;;;17.73;;
75167;SDS011;73507;52.510;13.420;2024-03-08T06:25:11;37.80;;;18.15;;
75167;SDS011;73507;52.510;13.420;2024-03-08T06:27:41;32.20;;;13.85;;
75167;SDS011;73507;52.510;13.420;2024-03-08T06:30:12;35.55;;;15.40;;
75167;SDS011;73507;52.510;13.420;2024-03-08T06:32:38;33.50;;;12.38;;
75167;SDS011;73507;52.510;13.420;2024-03-08T06:35:05;22.58;;;11.00;;
75167;SDS011;73507;52.510;13.420;2024-03-08T06:37:32;35.40;;;15.07;;
75167;SDS011;73507;52.510;13.420;2024-03-08T06:39:59;37.28;;;15.73;;
75167;SDS011;73507;52.510;13.420;2024-03-08T06:42:26;31.15;;;13.85;;
75167;SDS011;73507;52.510;13.420;2024-03-08T06:44:53;32.50;;;14.55;;
75167;SDS011;73507;52.510;13.420;2024-03-08T06:47:21;28.88;;;13.50;;
75167;SDS011;73507;52.510;13.420;2024-03-08T06:49:51;37.60;;;15.57;;
75167;SDS011;73507;52.510;13.420;2024-03-08T06:52:17;25.42;;;12.32;;
75167;SDS011;73507;52.510;13.420;2024-03-08T06:54:44;35.90;;;14.27;;
75167;SDS011;73507;52.510;13.420;2024-03-08T06:57:10;32.30;;;14.82;;
75167;SDS011;73507;52.510;13.420;2024-03-08T06:59:36;26.88;;;12.15;;
75167;SDS011;73507;52.510;13.420;2024-03-08T07:02:03;30.17;;;14.65;;
75167;SDS011;73507;52.510;13.420;2024-03-08T07:04:29;30.92;;;14.98;;
75167;SDS011;73507;52.510;13.420;2024-03-08T07:06:56;16.42;;;8.98;;
75167;SDS011;73507;52.510;13.420;2024-03-08T07:09:24;26.70;;;11.95;;
75167;SDS011;73507;52.510;13.420;2024-03-08T07:11:54;30.13;;;12.32;;
75167;SDS011;73507;52.510;13.420;2024-03-08T07:14:22;34.85;;;12.63;;
75167;SDS011;73507;52.510;13.420;2024-03-08T07:16:48;34.17;;;13.80;;
75167;SDS011;73507;52.510;13.420;2024-03-08T07:19:18;31.42;;;13.00;;
75167;SDS011;73507;52.510;13.420;2024-03-08T07:21:46;26.52;;;11.93;;
75167;SDS011;73507;52.510;13.420;2024-03-08T07:24:12;14.85;;;6.47;;
75167;SDS011;73507;52.510;13.420;2024-03-08T07:26:45;28.67;;;12.48;;
75167;SDS011;73507;52.510;13.420;2024-03-08T07:29:18;23.88;;;11.02;;
75167;SDS011;73507;52.510;13.420;2024-03-08T07:31:44;35.78;;;14.90;;
75167;SDS011;73507;52.510;13.420;2024-03-08T07:34:16;25.08;;;11.93;;
75167;SDS011;73507;52.510;13.420;2024-03-08T07:36:43;33.17;;;15.05;;
75167;SDS011;73507;52.510;13.420;2024-03-08T07:39:10;28.85;;;14.48;;
75167;SDS011;73507;52.510;13.420;2024-03-08T07:41:40;27.88;;;13.10;;
75167;SDS011;73507;52.510;13.420;2024-03-08T07:44:07;26.92;;;13.30;;
75167;SDS011;73507;52.510;13.420;2024-03-08T07:46:36;24.45;;;11.68;;
75167;SDS011;73507;52.510;13.420;2024-03-08T07:49:05;14.20;;;5.95;;
75167;SDS011;73507;52.510;13.420;2024-03-08T07:51:32;23.00;;;11.25;;
75167;SDS011;73507;52.510;13.420;2024-03-08T07:54:00;24.05;;;11.60;;
75167;SDS011;73507;52.510;13.420;2024-03-08T07:56:29;29.30;;;11.23;;
75167;SDS011;73507;52.510;13.420;2024-03-08T07:58:55;21.92;;;9.07;;
75167;SDS011;73507;52.510;13.420;2024-03-08T08:01:23;27.85;;;13.38;;
75167;SDS011;73507;52.510;13.420;2024-03-08T08:12:08;25.23;;;12.57;;
75167;SDS011;73507;52.510;13.420;2024-03-08T08:14:38;23.55;;;10.82;;
75167;SDS011;73507;52.510;13.420;2024-03-08T08:17:04;28.20;;;12.05;;
75167;SDS011;73507;52.510;13.420;2024-03-08T08:19:34;27.80;;;12.43;;
75167;SDS011;73507;52.510;13.420;2024-03-08T08:22:03;26.88;;;11.43;;
75167;SDS011;73507;52.510;13.420;2024-03-08T08:24:35;27.00;;;14.10;;
75167;SDS011;73507;52.510;13.420;2024-03-08T08:27:02;19.08;;;9.73;;
75167;SDS011;73507;52.510;13.420;2024-03-08T08:29:29;23.38;;;10.90;;
75167;SDS011;73507;52.510;13.420;2024-03-08T08:31:58;31.45;;;12.38;;
75167;SDS011;73507;52.510;13.420;2024-03-08T08:34:27;19.38;;;9.07;;
75167;SDS011;73507;52.510;13.420;2024-03-08T08:36:53;26.75;;;11.85;;
75167;SDS011;73507;52.510;13.420;2024-03-08T08:39:19;25.00;;;11.63;;
75167;SDS011;73507;52.510;13.420;2024-03-08T08:41:48;27.27;;;11.57;;
75167;SDS011;73507;52.510;13.420;2024-03-08T08:44:14;13.35;;;4.45;;
75167;SDS011;73507;52.510;13.420;2024-03-08T08:46:40;26.85;;;11.00;;
75167;SDS011;73507;52.510;13.420;2024-03-08T08:49:07;18.05;;;8.32;;
75167;SDS011;73507;52.510;13.420;2024-03-08T08:51:36;23.30;;;10.27;;
75167;SDS011;73507;52.510;13.420;2024-03-08T08:54:03;23.98;;;11.02;;
75167;SDS011;73507;52.510;13.420;2024-03-08T08:56:31;24.65;;;10.82;;
75167;SDS011;73507;52.510;13.420;2024-03-08T08:58:58;26.85;;;12.25;;
75167;SDS011;73507;52.510;13.420;2024-03-08T09:01:24;23.77;;;11.35;;
75167;SDS011;73507;52.510;13.420;2024-03-08T09:03:51;28.88;;;11.90;;
75167;SDS011;73507;52.510;13.420;2024-03-08T09:06:17;22.60;;;11.15;;
75167;SDS011;73507;52.510;13.420;2024-03-08T09:08:43;27.27;;;11.50;;
75167;SDS011;73507;52.510;13.420;2024-03-08T09:11:11;24.52;;;10.15;;
75167;SDS011;73507;52.510;13.420;2024-03-08T09:13:37;11.45;;;4.45;;
75167;SDS011;73507;52.510;13.420;2024-03-08T09:16:03;25.58;;;13.98;;
75167;SDS011;73507;52.510;13.420;2024-03-08T09:18:32;20.95;;;10.93;;
75167;SDS011;73507;52.510;13.420;2024-03-08T09:21:00;20.60;;;8.65;;
75167;SDS011;73507;52.510;13.420;2024-03-08T09:23:26;11.27;;;6.30;;
75167;SDS011;73507;52.510;13.420;2024-03-08T09:25:56;7.38;;;6.03;;
75167;SDS011;73507;52.510;13.420;2024-03-08T09:28:25;11.85;;;6.32;;
75167;SDS011;73507;52.510;13.420;2024-03-08T09:30:55;14.98;;;8.02;;
75167;SDS011;73507;52.510;13.420;2024-03-08T09:33:21;16.92;;;7.60;;
75167;SDS011;73507;52.510;13.420;2024-03-08T09:35:47;14.40;;;7.10;;
75167;SDS011;73507;52.510;13.420;2024-03-08T09:38:14;24.60;;;12.30;;
75167;SDS011;73507;52.510;13.420;2024-03-08T09:40:43;22.90;;;9.98;;
75167;SDS011;73507;52.510;13.420;2024-03-08T09:43:09;28.17;;;12.77;;
75167;SDS011;73507;52.510;13.420;2024-03-08T09:45:38;22.40;;;11.20;;
75167;SDS011;73507;52.510;13.420;2024-03-08T09:48:09;28.13;;;14.63;;
75167;SDS011;73507;52.510;13.420;2024-03-08T09:50:42;17.42;;;7.72;;
75167;SDS011;73507;52.510;13.420;2024-03-08T09:53:08;32.45;;;12.52;;
75167;SDS011;73507;52.510;13.420;2024-03-08T09:55:37;25.17;;;11.60;;
75167;SDS011;73507;52.510;13.420;2024-03-08T09:58:06;26.55;;;13.15;;
75167;SDS011;73507;52.510;13.420;2024-03-08T10:00:55;21.17;;;10.95;;
75167;SDS011;73507;52.510;13.420;2024-03-08T10:03:22;14.90;;;5.70;;
75167;SDS011;73507;52.510;13.420;2024-03-08T10:05:51;26.65;;;11.68;;
75167;SDS011;73507;52.510;13.420;2024-03-08T10:08:19;25.95;;;9.55;;
75167;SDS011;73507;52.510;13.420;2024-03-08T10:10:46;32.72;;;11.85;;
75167;SDS011;73507;52.510;13.420;2024-03-08T10:13:12;21.20;;;9.32;;
75167;SDS011;73507;52.510;13.420;2024-03-08T10:15:39;23.50;;;10.77;;
75167;SDS011;73507;52.510;13.420;2024-03-08T10:18:06;22.73;;;11.77;;
75167;SDS011;73507;52.510;13.420;2024-03-08T10:20:35;25.23;;;12.02;;
75167;SDS011;73507;52.510;13.420;2024-03-08T10:23:04;21.27;;;10.38;;
75167;SDS011;73507;52.510;13.420;2024-03-08T10:25:34;26.83;;;11.20;;
75167;SDS011;73507;52.510;13.420;2024-03-08T10:28:03;16.67;;;7.68;;
75167;SDS011;73507;52.510;13.420;2024-03-08T10:30:35;16.80;;;7.93;;
75167;SDS011;73507;52.510;13.420;2024-03-08T10:33:01;20.58;;;8.35;;
75167;SDS011;73507;52.510;13.420;2024-03-08T10:35:30;20.85;;;10.77;;
75167;SDS011;73507;52.510;13.420;2024-03-08T10:37:56;19.63;;;10.50;;
75167;SDS011;73507;52.510;13.420;2024-03-08T10:40:28;17.70;;;8.40;;
75167;SDS011;73507;52.510;13.420;2024-03-08T10:42:58;25.92;;;9.07;;
75167;SDS011;73507;52.510;13.420;2024-03-08T10:47:50;22.92;;;10.63;;
75167;SDS011;73507;52.510;13.420;2024-03-08T10:50:20;21.17;;;9.93;;
75167;SDS011;73507;52.510;13.420;2024-03-08T10:52:48;19.27;;;7.75;;
75167;SDS011;73507;52.510;13.420;2024-03-08T10:55:16;20.73;;;10.20;;
75167;SDS011;73507;52.510;13.420;2024-03-08T10:57:43;16.02;;;6.97;;
75167;SDS011;73507;52.510;13.420;2024-03-08T11:00:10;19.08;;;8.35;;
75167;SDS011;73507;52.510;13.420;2024-03-08T11:02:38;14.05;;;6.70;;
75167;SDS011;73507;52.510;13.420;2024-03-08T11:05:04;18.58;;;9.00;;
75167;SDS011;73507;52.510;13.420;2024-03-08T11:07:40;16.73;;;8.13;;
75167;SDS011;73507;52.510;13.420;2024-03-08T11:10:07;25.20;;;9.32;;
75167;SDS011;73507;52.510;13.420;2024-03-08T11:12:37;21.10;;;8.88;;
75167;SDS011;73507;52.510;13.420;2024-03-08T11:15:10;17.80;;;6.72;;
75167;SDS011;73507;52.510;13.420;2024-03-08T11:20:15;8.57;;;3.85;;
75167;SDS011;73507;52.510;13.420;2024-03-08T11:22:54;14.10;;;6.75;;
75167;SDS011;73507;52.510;13.420;2024-03-08T11:25:31;17.88;;;8.02;;
75167;SDS011;73507;52.510;13.420;2024-03-08T11:28:10;15.65;;;7.50;;
75167;SDS011;73507;52.510;13.420;2024-03-08T11:33:34;19.00;;;11.25;;
75167;SDS011;73507;52.510;13.420;2024-03-08T11:38:47;22.25;;;9.27;;
75167;SDS011;73507;52.510;13.420;2024-03-08T11:41:20;17.08;;;8.27;;
75167;SDS011;73507;52.510;13.420;2024-03-08T11:43:47;17.15;;;8.63;;
75167;SDS011;73507;52.510;13.420;2024-03-08T11:46:14;16.13;;;7.35;;
75167;SDS011;73507;52.510;13.420;2024-03-08T11:48:42;15.45;;;8.60;;
75167;SDS011;73507;52.510;13.420;2024-03-08T11:51:09;21.35;;;11.23;;
75167;SDS011;73507;52.510;13.420;2024-03-08T11:56:22;21.33;;;9.30;;
75167;SDS011;73507;52.510;13.420;2024-03-08T11:58:55;20.92;;;9.27;;
75167;SDS011;73507;52.510;13.420;2024-03-08T12:01:27;19.77;;;10.50;;
75167;SDS011;73507;52.510;13.420;2024-03-08T12:03:53;23.88;;;12.20;;
75167;SDS011;73507;52.510;13.420;2024-03-08T12:06:24;15.43;;;7.80;;
75167;SDS011;73507;52.510;13.420;2024-03-08T12:08:52;19.98;;;8.73;;
75167;SDS011;73507;52.510;13.420;2024-03-08T12:11:19;18.98;;;9.65;;
75167;SDS011;73507;52.510;13.420;2024-03-08T12:13:49;10.77;;;5.82;;
75167;SDS011;73507;52.510;13.420;2024-03-08T12:16:18;21.77;;;8.05;;
75167;SDS011;73507;52.510;13.420;2024-03-08T12:18:46;20.55;;;9.38;;
75167;SDS011;73507;52.510;13.420;2024-03-08T12:21:13;13.82;;;7.07;;
75167;SDS011;73507;52.510;13.420;2024-03-08T12:23:44;21.48;;;9.93;;
75167;SDS011;73507;52.510;13.420;2024-03-08T12:28:39;18.55;;;9.05;;
75167;SDS011;73507;52.510;13.420;2024-03-08T12:31:07;13.13;;;7.65;;
75167;SDS011;73507;52.510;13.420;2024-03-08T12:33:49;14.52;;;6.57;;
75167;SDS011;73507;52.510;13.420;2024-03-08T12:36:16;18.85;;;9.23;;
75167;SDS011;73507;52.510;13.420;2024-03-08T12:38:46;21.98;;;10.85;;
75167;SDS011;73507;52.510;13.420;2024-03-08T12:41:18;18.25;;;9.02;;
75167;SDS011;73507;52.510;13.420;2024-03-08T12:43:44;22.23;;;11.07;;
75167;SDS011;73507;52.510;13.420;2024-03-08T12:46:17;19.23;;;9.55;;
75167;SDS011;73507;52.510;13.420;2024-03-08T12:48:46;23.58;;;10.70;;
75167;SDS011;73507;52.510;13.420;2024-03-08T12:51:16;20.75;;;9.80;;
75167;SDS011;73507;52.510;13.420;2024-03-08T12:53:43;20.90;;;9.95;;
75167;SDS011;73507;52.510;13.420;2024-03-08T12:56:10;25.90;;;11.93;;
75167;SDS011;73507;52.510;13.420;2024-03-08T12:58:37;16.88;;;7.80;;
75167;SDS011;73507;52.510;13.420;2024-03-08T13:01:05;22.13;;;11.63;;
75167;SDS011;73507;52.510;13.420;2024-03-08T13:03:33;15.77;;;9.00;;
75167;SDS011;73507;52.510;13.420;2024-03-08T13:06:04;19.63;;;11.10;;
75167;SDS011;73507;52.510;13.420;2024-03-08T13:08:36;20.55;;;10.35;;
75167;SDS011;73507;52.510;13.420;2024-03-08T13:11:05;18.85;;;10.93;;
75167;SDS011;73507;52.510;13.420;2024-03-08T13:13:38;16.17;;;8.38;;
75167;SDS011;73507;52.510;13.420;2024-03-08T13:16:05;21.83;;;10.65;;
75167;SDS011;73507;52.510;13.420;2024-03-08T13:18:33;18.13;;;10.45;;
75167;SDS011;73507;52.510;13.420;2024-03-08T13:21:02;16.90;;;10.27;;
75167;SDS011;73507;52.510;13.420;2024-03-08T13:23:33;18.65;;;11.00;;
75167;SDS011;73507;52.510;13.420;2024-03-08T13:26:08;21.50;;;10.07;;
75167;SDS011;73507;52.510;13.420;2024-03-08T13:28:37;17.88;;;9.95;;
75167;SDS011;73507;52.510;13.420;2024-03-08T13:31:04;21.38;;;10.85;;
75167;SDS011;73507;52.510;13.420;2024-03-08T13:33:35;21.15;;;10.38;;
75167;SDS011;73507;52.510;13.420;2024-03-08T13:36:08;22.70;;;12.35;;
75167;SDS011;73507;52.510;13.420;2024-03-08T13:38:43;22.73;;;11.93;;
75167;SDS011;73507;52.510;13.420;2024-03-08T13:41:10;24.23;;;11.73;;
75167;SDS011;73507;52.510;13.420;2024-03-08T13:43:37;48.53;;;17.48;;
75167;SDS011;73507;52.510;13.420;2024-03-08T13:46:04;33.30;;;14.73;;
75167;SDS011;73507;52.510;13.420;2024-03-08T13:48:34;33.55;;;14.60;;
75167;SDS011;73507;52.510;13.420;2024-03-08T13:51:00;71.38;;;35.75;;
75167;SDS011;73507;52.510;13.420;2024-03-08T13:53:26;19.10;;;10.27;;
75167;SDS011;73507;52.510;13.420;2024-03-08T13:55:52;23.95;;;12.43;;
75167;SDS011;73507;52.510;13.420;2024-03-08T13:58:18;18.20;;;10.02;;
75167;SDS011;73507;52.510;13.420;2024-03-08T14:00:46;33.03;;;15.70;;
75167;SDS011;73507;52.510;13.420;2024-03-08T14:03:12;16.77;;;8.50;;
75167;SDS011;73507;52.510;13.420;2024-03-08T14:05:42;21.65;;;11.27;;
75167;SDS011;73507;52.510;13.420;2024-03-08T14:08:11;18.90;;;10.23;;
75167;SDS011;73507;52.510;13.420;2024-03-08T14:10:37;25.55;;;10.48;;
75167;SDS011;73507;52.510;13.420;2024-03-08T14:18:22;19.55;;;11.13;;
75167;SDS011;73507;52.510;13.420;2024-03-08T14:23:35;20.73;;;10.60;;
75167;SDS011;73507;52.510;13.420;2024-03-08T14:26:01;21.45;;;10.60;;
75167;SDS011;73507;52.510;13.420;2024-03-08T14:28:28;18.45;;;9.15;;
75167;SDS011;73507;52.510;13.420;2024-03-08T14:30:57;13.65;;;7.13;;
75167;SDS011;73507;52.510;13.420;2024-03-08T14:33:23;18.50;;;6.45;;
75167;SDS011;73507;52.510;13.420;2024-03-08T14:35:50;19.13;;;9.80;;
75167;SDS011;73507;52.510;13.420;2024-03-08T14:38:16;13.77;;;7.38;;
75167;SDS011;73507;52.510;13.420;2024-03-08T14:40:42;17.55;;;9.95;;
75167;SDS011;73507;52.510;13.420;2024-03-08T14:43:12;16.38;;;9.52;;
75167;SDS011;73507;52.510;13.420;2024-03-08T14:45:49;21.45;;;10.40;;
75167;SDS011;73507;52.510;13.420;2024-03-08T14:48:23;22.73;;;10.30;;
75167;SDS011;73507;52.510;13.420;2024-03-08T14:50:49;20.35;;;9.40;;
75167;SDS011;73507;52.510;13.420;2024-03-08T14:53:25;17.02;;;9.50;;
75167;SDS011;73507;52.510;13.420;2024-03-08T14:55:56;17.50;;;9.27;;